createdAt,value
2022-11-29T00:00:21.322Z,23.88
2022-11-29T00:00:51.364Z,23.91
2022-11-29T00:01:21.420Z,23.89
2022-11-29T00:01:51.656Z,23.88
2022-11-29T00:02:21.646Z,23.88
2022-11-29T00:02:51.635Z,23.89
2022-11-29T00:03:21.715Z,23.91
2022-11-29T00:03:51.632Z,23.91
2022-11-29T00:04:21.716Z,23.89
2022-11-29T00:04:51.834Z,23.89
2022-11-29T00:05:21.867Z,23.89
2022-11-29T00:05:51.866Z,23.89
2022-11-29T00:06:22.447Z,23.89
2022-11-29T00:06:51.978Z,23.89
2022-11-29T00:07:22.040Z,23.91
2022-11-29T00:07:52.125Z,23.92
2022-11-29T00:08:22.135Z,23.92
2022-11-29T00:08:52.150Z,23.92
2022-11-29T00:09:22.155Z,23.94
2022-11-29T00:09:52.153Z,23.94
2022-11-29T00:10:22.156Z,23.91
2022-11-29T00:10:52.183Z,23.91
2022-11-29T00:11:22.189Z,23.87
2022-11-29T00:11:52.225Z,23.91
2022-11-29T00:12:22.273Z,23.87
2022-11-29T00:12:52.341Z,23.91
2022-11-29T00:13:22.413Z,23.89
2022-11-29T00:13:52.462Z,23.89
2022-11-29T00:14:22.514Z,23.89
2022-11-29T00:14:52.557Z,23.89
2022-11-29T00:15:22.604Z,23.88
2022-11-29T00:15:52.693Z,23.88
2022-11-29T00:16:22.822Z,23.91
2022-11-29T00:16:52.862Z,23.89
2022-11-29T00:17:22.851Z,23.91
2022-11-29T00:17:52.912Z,23.92
2022-11-29T00:18:22.964Z,23.91
2022-11-29T00:18:53.010Z,23.92
2022-11-29T00:19:23.088Z,23.94
2022-11-29T00:19:53.120Z,23.94
2022-11-29T00:20:23.199Z,23.94
2022-11-29T00:20:53.245Z,23.96
2022-11-29T00:21:23.301Z,23.99
2022-11-29T00:21:53.335Z,23.99
2022-11-29T00:22:23.387Z,23.98
2022-11-29T00:22:53.439Z,23.99
2022-11-29T00:23:23.491Z,23.98
2022-11-29T00:23:53.536Z,23.98
2022-11-29T00:24:23.585Z,23.96
2022-11-29T00:24:53.622Z,24.01
2022-11-29T00:25:23.674Z,23.99
2022-11-29T00:25:53.765Z,24.04
2022-11-29T00:26:23.813Z,24.01
2022-11-29T00:26:53.860Z,24.04
2022-11-29T00:27:23.913Z,24.02
2022-11-29T00:27:53.956Z,24.02
2022-11-29T00:28:24.013Z,24.04
2022-11-29T00:28:54.066Z,24.04
2022-11-29T00:29:24.118Z,24.02
2022-11-29T00:29:54.161Z,24.01
2022-11-29T00:30:24.291Z,23.99
2022-11-29T00:30:54.254Z,23.98
2022-11-29T00:31:24.297Z,23.98
2022-11-29T00:31:54.343Z,23.95
2022-11-29T00:32:24.394Z,23.99
2022-11-29T00:32:54.447Z,23.95
2022-11-29T00:33:24.493Z,23.99
2022-11-29T00:33:54.535Z,23.98
2022-11-29T00:34:24.603Z,23.99
2022-11-29T00:34:58.251Z,24.04
2022-11-29T00:35:24.744Z,24.02
2022-11-29T00:35:54.817Z,24.02
2022-11-29T00:36:24.846Z,24.02
2022-11-29T00:36:54.898Z,24.01
2022-11-29T00:37:24.946Z,24.02
2022-11-29T00:37:54.997Z,24.01
2022-11-29T00:38:25.034Z,24.01
2022-11-29T00:38:55.085Z,23.99
2022-11-29T00:39:25.135Z,24.01
2022-11-29T00:39:55.188Z,24.02
2022-11-29T00:40:25.238Z,23.98
2022-11-29T00:40:55.313Z,24.01
2022-11-29T00:41:25.355Z,23.98
2022-11-29T00:41:55.411Z,24.01
2022-11-29T00:42:25.482Z,24.02
2022-11-29T00:42:55.555Z,24.02
2022-11-29T00:43:25.653Z,23.98
2022-11-29T00:43:55.615Z,23.98
2022-11-29T00:44:25.672Z,23.95
2022-11-29T00:44:55.724Z,23.92
2022-11-29T00:45:25.769Z,23.92
2022-11-29T00:45:55.853Z,23.89
2022-11-29T00:46:25.924Z,23.89
2022-11-29T00:46:55.857Z,23.89
2022-11-29T00:47:25.917Z,23.88
2022-11-29T00:47:55.954Z,23.88
2022-11-29T00:48:26.022Z,23.84
2022-11-29T00:48:56.084Z,23.85
2022-11-29T00:49:26.133Z,23.84
2022-11-29T00:49:56.176Z,23.84
2022-11-29T00:50:26.227Z,23.84
2022-11-29T00:50:56.272Z,23.85
2022-11-29T00:51:26.357Z,23.85
2022-11-29T00:51:56.390Z,23.85
2022-11-29T00:52:26.439Z,23.87
2022-11-29T00:52:56.479Z,23.85
2022-11-29T00:53:26.545Z,23.84
2022-11-29T00:53:56.589Z,23.87
2022-11-29T00:54:26.643Z,23.87
2022-11-29T00:54:56.686Z,23.88
2022-11-29T00:55:26.737Z,23.88
2022-11-29T00:55:56.795Z,23.88
2022-11-29T00:56:26.864Z,23.88
2022-11-29T00:56:56.901Z,23.91
2022-11-29T00:57:26.943Z,23.92
2022-11-29T00:57:56.996Z,23.89
2022-11-29T00:58:27.058Z,23.89
2022-11-29T00:58:57.109Z,23.91
2022-11-29T00:59:27.151Z,23.94
2022-11-29T00:59:57.197Z,23.92
2022-11-29T01:00:27.251Z,23.95
2022-11-29T01:00:57.388Z,23.94
2022-11-29T01:01:27.490Z,23.95
2022-11-29T01:01:57.553Z,23.95
2022-11-29T01:02:27.568Z,23.94
2022-11-29T01:02:57.572Z,23.95
2022-11-29T01:03:27.585Z,23.96
2022-11-29T01:03:57.586Z,23.96
2022-11-29T01:04:27.594Z,23.92
2022-11-29T01:04:57.596Z,23.94
2022-11-29T01:05:27.604Z,23.94
2022-11-29T01:05:57.633Z,23.91
2022-11-29T01:06:27.639Z,23.92
2022-11-29T01:06:57.681Z,23.92
2022-11-29T01:07:27.734Z,23.92
2022-11-29T01:07:57.794Z,23.92
2022-11-29T01:08:27.814Z,23.89
2022-11-29T01:08:57.821Z,23.92
2022-11-29T01:09:27.830Z,23.94
2022-11-29T01:09:57.902Z,23.89
2022-11-29T01:10:27.924Z,23.96
2022-11-29T01:10:58.019Z,23.96
2022-11-29T01:11:28.006Z,23.92
2022-11-29T01:11:58.050Z,23.91
2022-11-29T01:12:28.119Z,23.96
2022-11-29T01:12:58.268Z,23.98
2022-11-29T01:13:28.190Z,23.96
2022-11-29T01:13:58.235Z,23.95
2022-11-29T01:14:28.279Z,23.96
2022-11-29T01:14:58.328Z,23.94
2022-11-29T01:15:28.382Z,23.98
2022-11-29T01:15:58.441Z,23.96
2022-11-29T01:16:28.595Z,23.92
2022-11-29T01:16:58.620Z,23.94
2022-11-29T01:17:28.669Z,23.94
2022-11-29T01:17:58.725Z,23.92
2022-11-29T01:18:28.778Z,23.91
2022-11-29T01:18:58.832Z,23.92
2022-11-29T01:19:28.894Z,23.94
2022-11-29T01:19:58.937Z,23.96
2022-11-29T01:20:28.988Z,23.96
2022-11-29T01:20:59.061Z,23.96
2022-11-29T01:21:29.143Z,23.95
2022-11-29T01:21:59.195Z,23.94
2022-11-29T01:22:29.287Z,23.95
2022-11-29T01:22:59.338Z,23.96
2022-11-29T01:23:29.402Z,23.95
2022-11-29T01:23:59.467Z,23.98
2022-11-29T01:24:29.520Z,23.96
2022-11-29T01:24:59.577Z,23.96
2022-11-29T01:25:29.634Z,23.94
2022-11-29T01:25:59.672Z,23.94
2022-11-29T01:26:29.746Z,23.89
2022-11-29T01:26:59.791Z,23.91
2022-11-29T01:27:29.852Z,23.88
2022-11-29T01:27:59.939Z,23.87
2022-11-29T01:28:30.014Z,23.87
2022-11-29T01:29:00.085Z,23.85
2022-11-29T01:29:30.129Z,23.87
2022-11-29T01:30:00.179Z,23.88
2022-11-29T01:30:30.393Z,23.84
2022-11-29T01:31:00.515Z,23.85
2022-11-29T01:31:30.411Z,23.83
2022-11-29T01:32:00.425Z,23.85
2022-11-29T01:32:30.522Z,23.84
2022-11-29T01:33:00.543Z,23.84
2022-11-29T01:33:30.609Z,23.81
2022-11-29T01:34:00.677Z,23.81
2022-11-29T01:34:30.753Z,23.83
2022-11-29T01:35:00.839Z,23.84
2022-11-29T01:35:30.935Z,23.84
2022-11-29T01:36:01.012Z,23.81
2022-11-29T01:36:31.079Z,23.85
2022-11-29T01:37:01.129Z,23.83
2022-11-29T01:37:31.178Z,23.84
2022-11-29T01:38:01.248Z,23.87
2022-11-29T01:38:31.278Z,23.87
2022-11-29T01:39:01.329Z,23.85
2022-11-29T01:39:31.373Z,23.83
2022-11-29T01:40:01.422Z,23.85
2022-11-29T01:40:31.477Z,23.84
2022-11-29T01:41:01.555Z,23.85
2022-11-29T01:41:31.601Z,23.88
2022-11-29T01:42:01.646Z,23.88
2022-11-29T01:42:31.694Z,23.88
2022-11-29T01:43:01.745Z,23.91
2022-11-29T01:43:31.810Z,23.92
2022-11-29T01:44:01.846Z,23.89
2022-11-29T01:44:31.891Z,23.92
2022-11-29T01:45:01.944Z,23.91
2022-11-29T01:45:32.057Z,23.91
2022-11-29T01:46:02.036Z,23.88
2022-11-29T01:46:32.064Z,23.89
2022-11-29T01:47:02.119Z,23.87
2022-11-29T01:47:32.169Z,23.87
2022-11-29T01:48:02.223Z,23.85
2022-11-29T01:48:32.273Z,23.84
2022-11-29T01:49:02.316Z,23.84
2022-11-29T01:49:32.365Z,23.83
2022-11-29T01:50:02.408Z,23.83
2022-11-29T01:50:32.468Z,23.81
2022-11-29T01:51:02.536Z,23.83
2022-11-29T01:51:32.583Z,23.83
2022-11-29T01:52:02.634Z,23.83
2022-11-29T01:52:32.690Z,23.83
2022-11-29T01:53:02.767Z,23.83
2022-11-29T01:53:32.814Z,23.84
2022-11-29T01:54:02.859Z,23.84
2022-11-29T01:54:32.969Z,23.83
2022-11-29T01:55:03.028Z,23.78
2022-11-29T01:55:33.183Z,23.81
2022-11-29T01:56:03.237Z,23.77
2022-11-29T01:56:33.213Z,23.80
2022-11-29T01:57:03.268Z,23.84
2022-11-29T01:57:33.331Z,23.83
2022-11-29T01:58:03.389Z,23.80
2022-11-29T01:58:33.428Z,23.80
2022-11-29T01:59:03.471Z,23.83
2022-11-29T01:59:33.523Z,23.81
2022-11-29T02:00:03.591Z,23.83
2022-11-29T02:00:33.646Z,23.81
2022-11-29T02:01:03.779Z,23.81
2022-11-29T02:01:33.748Z,23.81
2022-11-29T02:02:03.952Z,23.83
2022-11-29T02:02:33.890Z,23.78
2022-11-29T02:03:03.890Z,23.80
2022-11-29T02:03:33.886Z,23.80
2022-11-29T02:04:03.897Z,23.80
2022-11-29T02:04:33.898Z,23.80
2022-11-29T02:05:03.902Z,23.80
2022-11-29T02:05:33.923Z,23.78
2022-11-29T02:06:03.928Z,23.81
2022-11-29T02:06:33.957Z,23.78
2022-11-29T02:07:03.949Z,23.78
2022-11-29T02:07:33.997Z,23.77
2022-11-29T02:08:04.005Z,23.78
2022-11-29T02:08:34.036Z,23.78
2022-11-29T02:09:04.004Z,23.78
2022-11-29T02:09:34.010Z,23.77
2022-11-29T02:10:04.031Z,23.80
2022-11-29T02:10:34.039Z,23.77
2022-11-29T02:11:04.050Z,23.78
2022-11-29T02:11:34.490Z,23.77
2022-11-29T02:12:04.083Z,23.77
2022-11-29T02:12:34.130Z,23.78
2022-11-29T02:13:04.182Z,23.77
2022-11-29T02:13:34.243Z,23.77
2022-11-29T02:14:04.287Z,23.78
2022-11-29T02:14:34.339Z,23.80
2022-11-29T02:15:04.392Z,23.80
2022-11-29T02:15:34.583Z,23.80
2022-11-29T02:16:04.607Z,23.80
2022-11-29T02:16:34.547Z,23.81
2022-11-29T02:17:04.592Z,23.81
2022-11-29T02:17:34.644Z,23.81
2022-11-29T02:18:04.703Z,23.78
2022-11-29T02:18:34.759Z,23.84
2022-11-29T02:19:04.806Z,23.81
2022-11-29T02:19:34.846Z,23.85
2022-11-29T02:20:04.938Z,23.84
2022-11-29T02:20:34.976Z,23.84
2022-11-29T02:21:05.035Z,23.83
2022-11-29T02:21:35.085Z,23.87
2022-11-29T02:22:05.141Z,23.87
2022-11-29T02:22:35.198Z,23.89
2022-11-29T02:23:05.259Z,23.89
2022-11-29T02:23:35.306Z,23.92
2022-11-29T02:24:05.388Z,23.92
2022-11-29T02:24:35.396Z,23.94
2022-11-29T02:25:05.452Z,23.95
2022-11-29T02:25:35.505Z,23.96
2022-11-29T02:26:05.559Z,23.94
2022-11-29T02:26:35.604Z,23.96
2022-11-29T02:27:05.657Z,24.01
2022-11-29T02:27:35.712Z,23.98
2022-11-29T02:28:05.765Z,23.96
2022-11-29T02:28:35.809Z,24.01
2022-11-29T02:29:05.849Z,24.05
2022-11-29T02:29:35.906Z,24.02
2022-11-29T02:30:05.962Z,24.02
2022-11-29T02:30:36.064Z,23.98
2022-11-29T02:31:06.141Z,23.99
2022-11-29T02:31:36.171Z,23.99
2022-11-29T02:32:06.243Z,23.99
2022-11-29T02:32:36.296Z,24.01
2022-11-29T02:33:06.355Z,24.01
2022-11-29T02:33:36.389Z,24.01
2022-11-29T02:34:06.434Z,24.04
2022-11-29T02:34:36.493Z,24.02
2022-11-29T02:35:06.535Z,24.02
2022-11-29T02:35:36.582Z,24.01
2022-11-29T02:36:06.623Z,24.01
2022-11-29T02:36:36.680Z,24.05
2022-11-29T02:37:11.388Z,24.02
2022-11-29T02:37:36.746Z,24.02
2022-11-29T02:38:06.796Z,24.05
2022-11-29T02:38:36.834Z,24.05
2022-11-29T02:39:06.886Z,24.05
2022-11-29T02:39:36.968Z,24.05
2022-11-29T02:40:06.990Z,24.02
2022-11-29T02:40:37.038Z,24.02
2022-11-29T02:41:07.090Z,24.01
2022-11-29T02:41:37.150Z,23.99
2022-11-29T02:42:07.207Z,24.04
2022-11-29T02:42:37.254Z,23.99
2022-11-29T02:43:07.301Z,23.99
2022-11-29T02:43:37.343Z,23.96
2022-11-29T02:44:07.390Z,23.95
2022-11-29T02:44:37.453Z,23.95
2022-11-29T02:45:07.509Z,23.94
2022-11-29T02:45:37.560Z,23.96
2022-11-29T02:46:07.686Z,23.92
2022-11-29T02:46:37.707Z,23.91
2022-11-29T02:47:07.767Z,23.92
2022-11-29T02:47:37.818Z,23.91
2022-11-29T02:48:07.869Z,23.91
2022-11-29T02:48:37.913Z,23.88
2022-11-29T02:49:07.971Z,23.88
2022-11-29T02:49:38.025Z,23.85
2022-11-29T02:50:08.076Z,23.85
2022-11-29T02:50:38.163Z,23.85
2022-11-29T02:51:08.220Z,23.85
2022-11-29T02:51:38.284Z,23.88
2022-11-29T02:52:08.351Z,23.88
2022-11-29T02:52:38.412Z,23.87
2022-11-29T02:53:08.457Z,23.88
2022-11-29T02:53:38.512Z,23.88
2022-11-29T02:54:08.563Z,23.87
2022-11-29T02:54:38.620Z,23.84
2022-11-29T02:55:08.696Z,23.84
2022-11-29T02:55:38.715Z,23.84
2022-11-29T02:56:08.770Z,23.81
2022-11-29T02:56:38.817Z,23.81
2022-11-29T02:57:08.882Z,23.80
2022-11-29T02:57:38.924Z,23.84
2022-11-29T02:58:08.976Z,23.84
2022-11-29T02:58:39.027Z,23.83
2022-11-29T02:59:09.080Z,23.81
2022-11-29T02:59:39.127Z,23.83
2022-11-29T03:00:09.201Z,23.81
2022-11-29T03:00:39.250Z,23.80
2022-11-29T03:01:09.350Z,23.80
2022-11-29T03:01:39.447Z,23.77
2022-11-29T03:02:09.534Z,23.78
2022-11-29T03:02:39.611Z,23.77
2022-11-29T03:03:09.598Z,23.78
2022-11-29T03:03:39.605Z,23.77
2022-11-29T03:04:09.621Z,23.77
2022-11-29T03:04:39.616Z,23.78
2022-11-29T03:05:09.616Z,23.78
2022-11-29T03:05:39.632Z,23.77
2022-11-29T03:06:09.647Z,23.76
2022-11-29T03:06:39.652Z,23.74
2022-11-29T03:07:09.675Z,23.76
2022-11-29T03:07:39.749Z,23.73
2022-11-29T03:08:09.753Z,23.77
2022-11-29T03:08:39.758Z,23.78
2022-11-29T03:09:09.837Z,23.74
2022-11-29T03:09:39.907Z,23.76
2022-11-29T03:10:09.905Z,23.76
2022-11-29T03:10:40.013Z,23.78
2022-11-29T03:11:09.921Z,23.78
2022-11-29T03:11:39.957Z,23.78
2022-11-29T03:12:10.003Z,23.80
2022-11-29T03:12:40.057Z,23.84
2022-11-29T03:13:10.115Z,23.87
2022-11-29T03:13:40.165Z,23.88
2022-11-29T03:14:10.219Z,23.85
2022-11-29T03:14:40.273Z,23.87
2022-11-29T03:15:10.338Z,23.89
2022-11-29T03:15:40.483Z,23.88
2022-11-29T03:16:10.463Z,23.87
2022-11-29T03:16:43.251Z,23.89
2022-11-29T03:17:10.634Z,23.85
2022-11-29T03:17:40.721Z,23.87
2022-11-29T03:18:10.798Z,23.89
2022-11-29T03:18:40.853Z,23.92
2022-11-29T03:19:10.922Z,23.92
2022-11-29T03:19:40.996Z,23.92
2022-11-29T03:20:11.081Z,23.92
2022-11-29T03:20:41.148Z,23.94
2022-11-29T03:21:11.181Z,23.95
2022-11-29T03:21:41.228Z,23.96
2022-11-29T03:22:11.338Z,23.98
2022-11-29T03:22:41.388Z,24.01
2022-11-29T03:23:11.445Z,24.02
2022-11-29T03:23:41.492Z,24.02
2022-11-29T03:24:11.526Z,24.02
2022-11-29T03:24:41.747Z,24.01
2022-11-29T03:25:11.654Z,24.01
2022-11-29T03:25:41.725Z,23.99
2022-11-29T03:26:11.746Z,24.02
2022-11-29T03:26:41.804Z,24.04
2022-11-29T03:27:11.874Z,24.04
2022-11-29T03:27:41.931Z,24.04
2022-11-29T03:28:11.982Z,24.02
2022-11-29T03:28:42.024Z,23.99
2022-11-29T03:29:12.070Z,24.02
2022-11-29T03:29:42.124Z,24.02
2022-11-29T03:30:12.172Z,24.01
2022-11-29T03:30:42.269Z,23.99
2022-11-29T03:31:12.362Z,23.99
2022-11-29T03:31:42.403Z,24.01
2022-11-29T03:32:12.473Z,24.01
2022-11-29T03:32:42.515Z,23.99
2022-11-29T03:33:12.562Z,24.04
2022-11-29T03:33:42.610Z,24.04
2022-11-29T03:34:12.656Z,24.01
2022-11-29T03:34:43.075Z,24.05
2022-11-29T03:35:12.811Z,24.02
2022-11-29T03:35:42.864Z,24.04
2022-11-29T03:36:12.926Z,24.02
2022-11-29T03:36:42.969Z,24.05
2022-11-29T03:37:13.030Z,24.04
2022-11-29T03:37:43.074Z,23.99
2022-11-29T03:38:13.140Z,23.99
2022-11-29T03:38:43.196Z,23.99
2022-11-29T03:39:13.263Z,23.98
2022-11-29T03:39:43.371Z,23.95
2022-11-29T03:40:13.446Z,23.92
2022-11-29T03:40:43.489Z,23.91
2022-11-29T03:41:13.577Z,23.92
2022-11-29T03:41:43.595Z,23.91
2022-11-29T03:42:13.661Z,23.89
2022-11-29T03:42:43.720Z,23.89
2022-11-29T03:43:13.775Z,23.87
2022-11-29T03:43:43.832Z,23.87
2022-11-29T03:44:13.883Z,23.84
2022-11-29T03:44:44.275Z,23.85
2022-11-29T03:45:14.023Z,23.83
2022-11-29T03:45:44.080Z,23.83
2022-11-29T03:46:14.177Z,23.83
2022-11-29T03:46:44.245Z,23.80
2022-11-29T03:47:14.297Z,23.81
2022-11-29T03:47:44.349Z,23.78
2022-11-29T03:48:14.393Z,23.76
2022-11-29T03:48:44.444Z,23.76
2022-11-29T03:49:14.506Z,23.76
2022-11-29T03:49:44.563Z,23.73
2022-11-29T03:50:14.610Z,23.77
2022-11-29T03:50:44.656Z,23.80
2022-11-29T03:51:14.703Z,23.80
2022-11-29T03:51:44.758Z,23.80
2022-11-29T03:52:14.808Z,23.80
2022-11-29T03:52:44.863Z,23.77
2022-11-29T03:53:14.906Z,23.77
2022-11-29T03:53:44.988Z,23.78
2022-11-29T03:54:14.976Z,23.77
2022-11-29T03:54:45.394Z,23.77
2022-11-29T03:55:15.134Z,23.74
2022-11-29T03:55:45.196Z,23.78
2022-11-29T03:56:15.247Z,23.78
2022-11-29T03:56:45.369Z,23.74
2022-11-29T03:57:15.422Z,23.76
2022-11-29T03:57:45.510Z,23.73
2022-11-29T03:58:15.569Z,23.76
2022-11-29T03:58:45.618Z,23.76
2022-11-29T03:59:15.671Z,23.78
2022-11-29T03:59:45.783Z,23.77
2022-11-29T04:00:15.736Z,23.78
2022-11-29T04:00:45.784Z,23.80
2022-11-29T04:01:15.927Z,23.81
2022-11-29T04:01:45.985Z,23.78
2022-11-29T04:02:15.961Z,23.77
2022-11-29T04:02:45.998Z,23.76
2022-11-29T04:03:16.040Z,23.80
2022-11-29T04:03:46.081Z,23.76
2022-11-29T04:04:16.196Z,23.74
2022-11-29T04:04:46.541Z,23.76
2022-11-29T04:05:16.272Z,23.74
2022-11-29T04:05:46.305Z,23.76
2022-11-29T04:06:16.305Z,23.74
2022-11-29T04:06:46.317Z,23.77
2022-11-29T04:07:16.413Z,23.73
2022-11-29T04:07:46.375Z,23.80
2022-11-29T04:08:16.404Z,23.78
2022-11-29T04:08:46.427Z,23.78
2022-11-29T04:09:16.451Z,23.73
2022-11-29T04:09:46.456Z,23.76
2022-11-29T04:10:16.506Z,23.77
2022-11-29T04:10:46.554Z,23.74
2022-11-29T04:11:16.525Z,23.76
2022-11-29T04:11:46.568Z,23.80
2022-11-29T04:12:16.638Z,23.80
2022-11-29T04:12:46.668Z,23.80
2022-11-29T04:13:16.719Z,23.80
2022-11-29T04:13:46.779Z,23.81
2022-11-29T04:14:16.828Z,23.80
2022-11-29T04:14:47.125Z,23.81
2022-11-29T04:15:16.866Z,23.78
2022-11-29T04:15:46.945Z,23.78
2022-11-29T04:16:17.074Z,23.83
2022-11-29T04:16:47.009Z,23.83
2022-11-29T04:17:17.061Z,23.83
2022-11-29T04:17:47.107Z,23.81
2022-11-29T04:18:17.158Z,23.83
2022-11-29T04:18:47.219Z,23.83
2022-11-29T04:19:17.261Z,23.81
2022-11-29T04:19:47.318Z,23.84
2022-11-29T04:20:17.375Z,23.87
2022-11-29T04:20:48.529Z,23.81
2022-11-29T04:21:17.518Z,23.83
2022-11-29T04:21:47.570Z,23.87
2022-11-29T04:22:17.612Z,23.87
2022-11-29T04:22:47.672Z,23.83
2022-11-29T04:23:17.729Z,23.84
2022-11-29T04:23:47.770Z,23.81
2022-11-29T04:24:17.814Z,23.83
2022-11-29T04:24:47.869Z,23.85
2022-11-29T04:25:17.926Z,23.80
2022-11-29T04:25:47.975Z,23.83
2022-11-29T04:26:18.035Z,23.84
2022-11-29T04:26:48.086Z,23.81
2022-11-29T04:27:18.135Z,23.83
2022-11-29T04:27:48.223Z,23.81
2022-11-29T04:28:18.273Z,23.81
2022-11-29T04:28:48.311Z,23.80
2022-11-29T04:29:18.351Z,23.80
2022-11-29T04:29:48.410Z,23.84
2022-11-29T04:30:18.453Z,23.81
2022-11-29T04:30:48.566Z,23.84
2022-11-29T04:31:18.735Z,23.84
2022-11-29T04:31:48.716Z,23.81
2022-11-29T04:32:18.667Z,23.83
2022-11-29T04:32:48.718Z,23.83
2022-11-29T04:33:18.806Z,23.84
2022-11-29T04:33:48.866Z,23.84
2022-11-29T04:34:18.905Z,23.83
2022-11-29T04:34:48.966Z,23.80
2022-11-29T04:35:19.037Z,23.80
2022-11-29T04:35:49.077Z,23.77
2022-11-29T04:36:19.123Z,23.81
2022-11-29T04:36:49.173Z,23.80
2022-11-29T04:37:19.218Z,23.81
2022-11-29T04:37:49.270Z,23.81
2022-11-29T04:38:19.327Z,23.78
2022-11-29T04:38:49.388Z,23.83
2022-11-29T04:39:19.420Z,23.83
2022-11-29T04:39:49.502Z,23.77
2022-11-29T04:40:19.549Z,23.78
2022-11-29T04:40:49.603Z,23.73
2022-11-29T04:41:19.708Z,23.73
2022-11-29T04:41:49.696Z,23.67
2022-11-29T04:42:19.754Z,23.65
2022-11-29T04:42:49.823Z,23.67
2022-11-29T04:43:19.979Z,23.67
2022-11-29T04:43:49.917Z,23.65
2022-11-29T04:44:19.962Z,23.65
2022-11-29T04:44:50.021Z,23.70
2022-11-29T04:45:20.066Z,23.70
2022-11-29T04:45:50.111Z,23.70
2022-11-29T04:46:20.240Z,23.67
2022-11-29T04:46:50.268Z,23.67
2022-11-29T04:47:20.316Z,23.67
2022-11-29T04:47:50.420Z,23.64
2022-11-29T04:48:20.477Z,23.67
2022-11-29T04:48:50.524Z,23.65
2022-11-29T04:49:20.577Z,23.68
2022-11-29T04:49:50.631Z,23.67
2022-11-29T04:50:20.688Z,23.65
2022-11-29T04:50:50.726Z,23.68
2022-11-29T04:51:20.766Z,23.67
2022-11-29T04:51:50.813Z,23.67
2022-11-29T04:52:20.876Z,23.65
2022-11-29T04:52:50.929Z,23.62
2022-11-29T04:53:21.014Z,23.65
2022-11-29T04:53:51.097Z,23.64
2022-11-29T04:54:21.164Z,23.64
2022-11-29T04:54:51.216Z,23.65
2022-11-29T04:55:27.842Z,23.64
2022-11-29T04:55:51.293Z,23.62
2022-11-29T04:56:21.342Z,23.64
2022-11-29T04:56:51.392Z,23.68
2022-11-29T04:57:21.446Z,23.68
2022-11-29T04:57:51.505Z,23.65
2022-11-29T04:58:21.552Z,23.68
2022-11-29T04:58:51.628Z,23.70
2022-11-29T04:59:21.653Z,23.71
2022-11-29T04:59:51.697Z,23.70
2022-11-29T05:00:21.751Z,23.68
2022-11-29T05:00:51.808Z,23.71
2022-11-29T05:01:21.901Z,23.73
2022-11-29T05:01:51.893Z,23.74
2022-11-29T05:02:21.959Z,23.76
2022-11-29T05:02:52.035Z,23.76
2022-11-29T05:03:22.056Z,23.78
2022-11-29T05:03:56.850Z,23.78
2022-11-29T05:04:22.164Z,23.77
2022-11-29T05:04:52.175Z,23.80
2022-11-29T05:05:22.193Z,23.83
2022-11-29T05:05:52.199Z,23.81
2022-11-29T05:06:22.200Z,23.77
2022-11-29T05:06:52.223Z,23.80
2022-11-29T05:07:22.329Z,23.77
2022-11-29T05:07:52.285Z,23.78
2022-11-29T05:08:22.292Z,23.77
2022-11-29T05:08:52.302Z,23.78
2022-11-29T05:09:22.303Z,23.76
2022-11-29T05:09:52.311Z,23.76
2022-11-29T05:10:22.329Z,23.76
2022-11-29T05:10:52.331Z,23.77
2022-11-29T05:11:26.691Z,23.78
2022-11-29T05:11:52.396Z,23.77
2022-11-29T05:12:22.448Z,23.77
2022-11-29T05:12:52.537Z,23.76
2022-11-29T05:13:22.532Z,23.76
2022-11-29T05:13:52.555Z,23.77
2022-11-29T05:14:22.658Z,23.80
2022-11-29T05:14:52.704Z,23.81
2022-11-29T05:15:22.758Z,23.83
2022-11-29T05:15:52.886Z,23.81
2022-11-29T05:16:23.031Z,23.83
2022-11-29T05:16:52.982Z,23.83
2022-11-29T05:17:23.034Z,23.80
2022-11-29T05:17:53.076Z,23.78
2022-11-29T05:18:23.136Z,23.80
2022-11-29T05:18:53.179Z,23.77
2022-11-29T05:19:23.238Z,23.77
2022-11-29T05:19:53.291Z,23.76
2022-11-29T05:20:23.339Z,23.73
2022-11-29T05:20:53.393Z,23.73
2022-11-29T05:21:23.457Z,23.68
2022-11-29T05:21:53.550Z,23.68
2022-11-29T05:22:23.602Z,23.67
2022-11-29T05:22:53.649Z,23.65
2022-11-29T05:23:23.712Z,23.64
2022-11-29T05:23:53.763Z,23.65
2022-11-29T05:24:23.828Z,23.70
2022-11-29T05:24:53.882Z,23.64
2022-11-29T05:25:23.936Z,23.67
2022-11-29T05:25:53.985Z,23.64
2022-11-29T05:26:24.034Z,23.64
2022-11-29T05:26:54.075Z,23.70
2022-11-29T05:27:24.130Z,23.70
2022-11-29T05:27:54.193Z,23.71
2022-11-29T05:28:24.273Z,23.71
2022-11-29T05:28:54.330Z,23.76
2022-11-29T05:29:24.442Z,23.76
2022-11-29T05:29:54.503Z,23.78
2022-11-29T05:30:24.555Z,23.78
2022-11-29T05:30:54.684Z,23.83
2022-11-29T05:31:24.660Z,23.84
2022-11-29T05:31:54.704Z,23.85
2022-11-29T05:32:24.764Z,23.88
2022-11-29T05:32:54.812Z,23.91
2022-11-29T05:33:24.873Z,23.92
2022-11-29T05:33:54.919Z,23.98
2022-11-29T05:34:26.383Z,23.99
2022-11-29T05:34:55.041Z,24.01
2022-11-29T05:35:25.105Z,24.02
2022-11-29T05:35:55.152Z,24.06
2022-11-29T05:36:25.193Z,24.06
2022-11-29T05:36:55.244Z,24.09
2022-11-29T05:37:25.288Z,24.11
2022-11-29T05:37:55.350Z,24.11
2022-11-29T05:38:25.509Z,24.11
2022-11-29T05:38:55.441Z,24.13
2022-11-29T05:39:25.491Z,24.13
2022-11-29T05:39:55.540Z,24.15
2022-11-29T05:40:25.595Z,24.15
2022-11-29T05:40:55.643Z,24.16
2022-11-29T05:41:25.690Z,24.16
2022-11-29T05:41:55.750Z,24.19
2022-11-29T05:42:25.830Z,24.17
2022-11-29T05:42:55.932Z,24.20
2022-11-29T05:43:26.034Z,24.19
2022-11-29T05:43:56.095Z,24.22
2022-11-29T05:44:26.142Z,24.24
2022-11-29T05:44:56.231Z,24.20
2022-11-29T05:45:26.267Z,24.26
2022-11-29T05:45:56.311Z,24.26
2022-11-29T05:46:26.383Z,24.29
2022-11-29T05:46:56.427Z,24.27
2022-11-29T05:47:31.258Z,24.30
2022-11-29T05:47:56.501Z,24.32
2022-11-29T05:48:26.554Z,24.33
2022-11-29T05:48:56.611Z,24.35
2022-11-29T05:49:26.667Z,24.33
2022-11-29T05:49:56.729Z,24.38
2022-11-29T05:50:26.787Z,24.35
2022-11-29T05:50:56.825Z,24.38
2022-11-29T05:51:26.873Z,24.42
2022-11-29T05:51:56.938Z,24.39
2022-11-29T05:52:27.005Z,24.38
2022-11-29T05:52:57.056Z,24.42
2022-11-29T05:53:27.113Z,24.42
2022-11-29T05:53:57.165Z,24.46
2022-11-29T05:54:27.239Z,24.46
2022-11-29T05:54:57.279Z,24.47
2022-11-29T05:55:27.333Z,24.46
2022-11-29T05:55:57.377Z,24.43
2022-11-29T05:56:27.419Z,24.43
2022-11-29T05:56:57.464Z,24.43
2022-11-29T05:57:27.521Z,24.44
2022-11-29T05:57:57.579Z,24.43
2022-11-29T05:58:30.551Z,24.44
2022-11-29T05:58:57.684Z,24.42
2022-11-29T05:59:27.740Z,24.46
2022-11-29T05:59:57.792Z,24.43
2022-11-29T06:00:27.867Z,24.43
2022-11-29T06:00:57.895Z,24.39
2022-11-29T06:01:27.947Z,24.43
2022-11-29T06:01:57.984Z,24.40
2022-11-29T06:02:28.100Z,24.43
2022-11-29T06:02:58.115Z,24.43
2022-11-29T06:03:28.149Z,24.43
2022-11-29T06:03:58.163Z,24.44
2022-11-29T06:04:28.177Z,24.44
2022-11-29T06:04:58.188Z,24.44
2022-11-29T06:05:28.208Z,24.43
2022-11-29T06:05:58.192Z,24.50
2022-11-29T06:06:28.193Z,24.47
2022-11-29T06:06:58.213Z,24.49
2022-11-29T06:07:28.245Z,24.58
2022-11-29T06:07:58.284Z,24.58
2022-11-29T06:08:28.304Z,24.60
2022-11-29T06:08:58.317Z,24.60
2022-11-29T06:09:28.325Z,24.64
2022-11-29T06:10:01.645Z,24.64
2022-11-29T06:10:28.377Z,24.58
2022-11-29T06:10:58.397Z,24.57
2022-11-29T06:11:28.417Z,24.54
2022-11-29T06:11:58.477Z,24.51
2022-11-29T06:12:28.520Z,24.56
2022-11-29T06:12:58.567Z,24.54
2022-11-29T06:13:28.619Z,24.56
2022-11-29T06:13:58.669Z,24.61
2022-11-29T06:14:28.717Z,24.61
2022-11-29T06:14:58.763Z,24.57
2022-11-29T06:15:28.823Z,24.61
2022-11-29T06:15:59.066Z,24.60
2022-11-29T06:16:29.043Z,24.64
2022-11-29T06:16:58.973Z,24.56
2022-11-29T06:17:31.001Z,24.57
2022-11-29T06:17:59.050Z,24.56
2022-11-29T06:18:29.110Z,24.58
2022-11-29T06:18:59.159Z,24.57
2022-11-29T06:19:29.211Z,24.56
2022-11-29T06:19:59.260Z,24.56
2022-11-29T06:20:29.318Z,24.57
2022-11-29T06:20:59.363Z,24.56
2022-11-29T06:21:29.410Z,24.54
2022-11-29T06:21:59.458Z,24.57
2022-11-29T06:22:29.510Z,24.56
2022-11-29T06:22:59.556Z,24.57
2022-11-29T06:23:29.612Z,24.56
2022-11-29T06:23:59.656Z,24.54
2022-11-29T06:24:29.730Z,24.54
2022-11-29T06:24:59.791Z,24.57
2022-11-29T06:25:29.839Z,24.56
2022-11-29T06:26:03.845Z,24.51
2022-11-29T06:26:30.027Z,24.49
2022-11-29T06:27:00.079Z,24.54